sensor_id;sensor_type;location;lat;lon;timestamp;pressure;altitude;pressure_sealevel;temperature;humidity
4471;BME280;2248;42.698;23.292;2022-10-16T00:01:47;95789.13;;;7.32;100.00
4471;BME280;2248;42.698;23.292;2022-10-16T00:04:12;95801.47;;;7.37;100.00
4471;BME280;2248;42.698;23.292;2022-10-16T00:06:38;95798.78;;;7.37;100.00
4471;BME280;2248;42.698;23.292;2022-10-16T00:09:04;95806.44;;;7.35;100.00
4471;BME280;2248;42.698;23.292;2022-10-16T00:11:32;95807.56;;;7.33;100.00
4471;BME280;2248;42.698;23.292;2022-10-16T00:14:00;95805.63;;;7.30;100.00
4471;BME280;2248;42.698;23.292;2022-10-16T00:16:27;95809.84;;;7.31;100.00
4471;BME280;2248;42.698;23.292;2022-10-16T00:18:53;95814.44;;;7.31;100.00
4471;BME280;2248;42.698;23.292;2022-10-16T00:21:22;95810.81;;;7.46;100.00
4471;BME280;2248;42.698;23.292;2022-10-16T00:23:58;95805.41;;;7.43;100.00
4471;BME280;2248;42.698;23.292;2022-10-16T00:26:25;95803.50;;;7.47;100.00
4471;BME280;2248;42.698;23.292;2022-10-16T00:28:51;95816.28;;;7.54;100.00
4471;BME280;2248;42.698;23.292;2022-10-16T00:31:19;95820.44;;;7.47;100.00
4471;BME280;2248;42.698;23.292;2022-10-16T00:33:46;95812.69;;;7.42;100.00
4471;BME280;2248;42.698;23.292;2022-10-16T00:36:13;95811.91;;;7.42;100.00
4471;BME280;2248;42.698;23.292;2022-10-16T00:38:39;95800.13;;;7.23;100.00
4471;BME280;2248;42.698;23.292;2022-10-16T00:41:06;95819.06;;;7.30;100.00
4471;BME280;2248;42.698;23.292;2022-10-16T00:46:28;95807.63;;;7.10;100.00
4471;BME280;2248;42.698;23.292;2022-10-16T00:49:02;95790.66;;;7.03;100.00
4471;BME280;2248;42.698;23.292;2022-10-16T00:51:34;95805.28;;;7.05;100.00
4471;BME280;2248;42.698;23.292;2022-10-16T00:54:02;95799.06;;;7.01;100.00
4471;BME280;2248;42.698;23.292;2022-10-16T00:56:29;95802.22;;;7.07;100.00
4471;BME280;2248;42.698;23.292;2022-10-16T00:58:54;95807.75;;;7.18;100.00
4471;BME280;2248;42.698;23.292;2022-10-16T01:01:20;95811.25;;;7.22;100.00
4471;BME280;2248;42.698;23.292;2022-10-16T01:03:46;95817.38;;;7.19;100.00
4471;BME280;2248;42.698;23.292;2022-10-16T01:13:55;95821.59;;;7.20;100.00
4471;BME280;2248;42.698;23.292;2022-10-16T01:16:39;95823.03;;;7.13;100.00
4471;BME280;2248;42.698;23.292;2022-10-16T01:21:53;95808.00;;;7.09;100.00
4471;BME280;2248;42.698;23.292;2022-10-16T01:24:43;95815.22;;;7.05;100.00
4471;BME280;2248;42.698;23.292;2022-10-16T01:30:02;95791.53;;;6.84;100.00
4471;BME280;2248;42.698;23.292;2022-10-16T01:32:46;95805.44;;;6.89;100.00
4471;BME280;2248;42.698;23.292;2022-10-16T01:35:25;95803.88;;;6.88;100.00
4471;BME280;2248;42.698;23.292;2022-10-16T01:37:53;95811.09;;;6.84;100.00
4471;BME280;2248;42.698;23.292;2022-10-16T01:40:23;95805.31;;;6.82;100.00
4471;BME280;2248;42.698;23.292;2022-10-16T01:42:55;95816.00;;;6.78;100.00
4471;BME280;2248;42.698;23.292;2022-10-16T01:45:21;95802.72;;;6.62;100.00
4471;BME280;2248;42.698;23.292;2022-10-16T01:47:49;95815.88;;;6.71;100.00
4471;BME280;2248;42.698;23.292;2022-10-16T01:50:18;95811.56;;;6.63;100.00
4471;BME280;2248;42.698;23.292;2022-10-16T01:52:48;95804.94;;;6.57;100.00
4471;BME280;2248;42.698;23.292;2022-10-16T01:55:18;95820.38;;;6.63;100.00
4471;BME280;2248;42.698;23.292;2022-10-16T01:57:46;95827.25;;;6.61;100.00
4471;BME280;2248;42.698;23.292;2022-10-16T02:00:14;95819.13;;;6.57;100.00
4471;BME280;2248;42.698;23.292;2022-10-16T02:02:45;95822.09;;;6.52;100.00
4471;BME280;2248;42.698;23.292;2022-10-16T02:05:32;95823.97;;;6.48;100.00
4471;BME280;2248;42.698;23.292;2022-10-16T02:07:59;95833.44;;;6.42;100.00
4471;BME280;2248;42.698;23.292;2022-10-16T02:10:25;95823.75;;;6.34;100.00
4471;BME280;2248;42.698;23.292;2022-10-16T02:12:59;95827.13;;;6.31;100.00
4471;BME280;2248;42.698;23.292;2022-10-16T02:15:25;95800.78;;;6.13;100.00
4471;BME280;2248;42.698;23.292;2022-10-16T02:17:51;95833.69;;;6.33;100.00
4471;BME280;2248;42.698;23.292;2022-10-16T02:20:18;95841.44;;;6.38;100.00
4471;BME280;2248;42.698;23.292;2022-10-16T02:22:47;95833.63;;;6.30;100.00
4471;BME280;2248;42.698;23.292;2022-10-16T02:25:34;95842.94;;;6.36;100.00
4471;BME280;2248;42.698;23.292;2022-10-16T02:28:09;95846.69;;;6.31;100.00
4471;BME280;2248;42.698;23.292;2022-10-16T02:30:54;95840.84;;;6.25;100.00
4471;BME280;2248;42.698;23.292;2022-10-16T02:33:21;95850.50;;;6.30;100.00
4471;BME280;2248;42.698;23.292;2022-10-16T02:35:49;95838.44;;;6.20;100.00
4471;BME280;2248;42.698;23.292;2022-10-16T02:38:17;95843.53;;;6.25;100.00
4471;BME280;2248;42.698;23.292;2022-10-16T02:40:44;95846.91;;;6.22;100.00
4471;BME280;2248;42.698;23.292;2022-10-16T02:43:10;95835.69;;;6.17;100.00
4471;BME280;2248;42.698;23.292;2022-10-16T02:45:36;95851.09;;;6.20;100.00
4471;BME280;2248;42.698;23.292;2022-10-16T02:48:02;95854.06;;;6.15;100.00
4471;BME280;2248;42.698;23.292;2022-10-16T02:50:28;95862.81;;;6.11;100.00
4471;BME280;2248;42.698;23.292;2022-10-16T02:52:53;95864.38;;;6.13;100.00
4471;BME280;2248;42.698;23.292;2022-10-16T02:55:18;95853.94;;;6.07;100.00
4471;BME280;2248;42.698;23.292;2022-10-16T02:57:44;95865.97;;;6.17;100.00
4471;BME280;2248;42.698;23.292;2022-10-16T03:00:12;95873.66;;;6.19;100.00
4471;BME280;2248;42.698;23.292;2022-10-16T03:02:38;95868.38;;;6.22;100.00
4471;BME280;2248;42.698;23.292;2022-10-16T03:05:04;95869.22;;;6.26;100.00
4471;BME280;2248;42.698;23.292;2022-10-16T03:07:30;95861.53;;;6.25;100.00
4471;BME280;2248;42.698;23.292;2022-10-16T03:09:55;95868.44;;;6.26;100.00
4471;BME280;2248;42.698;23.292;2022-10-16T03:12:21;95854.00;;;6.11;100.00
4471;BME280;2248;42.698;23.292;2022-10-16T03:14:47;95868.66;;;6.17;100.00
4471;BME280;2248;42.698;23.292;2022-10-16T03:17:13;95869.31;;;6.10;100.00
4471;BME280;2248;42.698;23.292;2022-10-16T03:19:39;95852.59;;;5.98;100.00
4471;BME280;2248;42.698;23.292;2022-10-16T03:22:04;95864.41;;;5.97;100.00
4471;BME280;2248;42.698;23.292;2022-10-16T03:24:30;95873.69;;;5.99;100.00
4471;BME280;2248;42.698;23.292;2022-10-16T03:26:55;95865.69;;;5.83;100.00
4471;BME280;2248;42.698;23.292;2022-10-16T03:29:21;95879.25;;;5.90;100.00
4471;BME280;2248;42.698;23.292;2022-10-16T03:31:46;95877.28;;;5.87;100.00
4471;BME280;2248;42.698;23.292;2022-10-16T03:34:13;95879.47;;;5.82;100.00
4471;BME280;2248;42.698;23.292;2022-10-16T03:36:39;95872.47;;;5.77;100.00
4471;BME280;2248;42.698;23.292;2022-10-16T03:39:04;95879.03;;;5.80;100.00
4471;BME280;2248;42.698;23.292;2022-10-16T03:41:30;95882.13;;;5.82;100.00
4471;BME280;2248;42.698;23.292;2022-10-16T03:43:55;95877.47;;;5.79;100.00
4471;BME280;2248;42.698;23.292;2022-10-16T03:46:21;95864.19;;;5.66;100.00
4471;BME280;2248;42.698;23.292;2022-10-16T03:48:46;95851.09;;;5.61;100.00
4471;BME280;2248;42.698;23.292;2022-10-16T03:51:12;95875.50;;;5.75;100.00
4471;BME280;2248;42.698;23.292;2022-10-16T03:53:37;95871.97;;;5.71;100.00
4471;BME280;2248;42.698;23.292;2022-10-16T03:56:03;95870.06;;;5.72;100.00
4471;BME280;2248;42.698;23.292;2022-10-16T03:58:28;95875.88;;;5.74;100.00
4471;BME280;2248;42.698;23.292;2022-10-16T04:00:54;95866.25;;;5.73;100.00
4471;BME280;2248;42.698;23.292;2022-10-16T04:03:19;95868.94;;;5.73;100.00
4471;BME280;2248;42.698;23.292;2022-10-16T04:05:46;95859.13;;;5.61;100.00
4471;BME280;2248;42.698;23.292;2022-10-16T04:08:12;95865.75;;;5.67;100.00
4471;BME280;2248;42.698;23.292;2022-10-16T04:10:37;95872.69;;;5.68;100.00
4471;BME280;2248;42.698;23.292;2022-10-16T04:13:03;95863.38;;;5.62;100.00
4471;BME280;2248;42.698;23.292;2022-10-16T04:15:28;95864.41;;;5.57;100.00
4471;BME280;2248;42.698;23.292;2022-10-16T04:17:54;95869.50;;;5.63;100.00
4471;BME280;2248;42.698;23.292;2022-10-16T04:20:19;95843.38;;;5.40;100.00
4471;BME280;2248;42.698;23.292;2022-10-16T04:22:45;95872.09;;;5.59;100.00
4471;BME280;2248;42.698;23.292;2022-10-16T04:25:10;95873.94;;;5.55;100.00
4471;BME280;2248;42.698;23.292;2022-10-16T04:27:37;95872.38;;;5.54;100.00
4471;BME280;2248;42.698;23.292;2022-10-16T04:30:03;95876.53;;;5.51;100.00
4471;BME280;2248;42.698;23.292;2022-10-16T04:32:29;95887.19;;;5.48;100.00
4471;BME280;2248;42.698;23.292;2022-10-16T04:34:54;95882.09;;;5.43;100.00
4471;BME280;2248;42.698;23.292;2022-10-16T04:37:26;95890.13;;;5.43;100.00
4471;BME280;2248;42.698;23.292;2022-10-16T04:39:55;95889.28;;;5.38;100.00
4471;BME280;2248;42.698;23.292;2022-10-16T04:42:21;95875.72;;;5.31;100.00
4471;BME280;2248;42.698;23.292;2022-10-16T04:44:46;95886.19;;;5.36;100.00
4471;BME280;2248;42.698;23.292;2022-10-16T04:47:12;95892.66;;;5.35;100.00
4471;BME280;2248;42.698;23.292;2022-10-16T04:49:38;95894.38;;;5.44;100.00
4471;BME280;2248;42.698;23.292;2022-10-16T04:52:04;95912.34;;;5.43;100.00
4471;BME280;2248;42.698;23.292;2022-10-16T04:54:29;95898.25;;;5.46;100.00
4471;BME280;2248;42.698;23.292;2022-10-16T04:56:55;95901.63;;;5.43;100.00
4471;BME280;2248;42.698;23.292;2022-10-16T04:59:21;95893.16;;;5.41;100.00
4471;BME280;2248;42.698;23.292;2022-10-16T05:01:47;95919.88;;;5.53;100.00
4471;BME280;2248;42.698;23.292;2022-10-16T05:04:14;95908.34;;;5.53;100.00
4471;BME280;2248;42.698;23.292;2022-10-16T05:06:40;95906.97;;;5.79;100.00
4471;BME280;2248;42.698;23.292;2022-10-16T05:09:06;95903.69;;;6.05;100.00
4471;BME280;2248;42.698;23.292;2022-10-16T05:11:32;95919.44;;;6.26;100.00
4471;BME280;2248;42.698;23.292;2022-10-16T05:13:57;95913.56;;;6.20;100.00
4471;BME280;2248;42.698;23.292;2022-10-16T05:16:23;95922.31;;;6.17;100.00
4471;BME280;2248;42.698;23.292;2022-10-16T05:18:48;95920.72;;;6.13;100.00
4471;BME280;2248;42.698;23.292;2022-10-16T05:21:13;95918.69;;;6.06;100.00
4471;BME280;2248;42.698;23.292;2022-10-16T05:23:39;95922.63;;;6.12;100.00
4471;BME280;2248;42.698;23.292;2022-10-16T05:26:05;95926.22;;;6.20;100.00
4471;BME280;2248;42.698;23.292;2022-10-16T05:28:30;95925.22;;;6.28;100.00
4471;BME280;2248;42.698;23.292;2022-10-16T05:30:57;95934.75;;;6.25;100.00
4471;BME280;2248;42.698;23.292;2022-10-16T05:33:24;95930.25;;;6.30;100.00
4471;BME280;2248;42.698;23.292;2022-10-16T05:35:50;95921.47;;;6.33;100.00
4471;BME280;2248;42.698;23.292;2022-10-16T05:38:17;95937.69;;;6.59;100.00
4471;BME280;2248;42.698;23.292;2022-10-16T05:40:43;95923.50;;;6.59;100.00
4471;BME280;2248;42.698;23.292;2022-10-16T05:43:08;95922.50;;;6.67;100.00
4471;BME280;2248;42.698;23.292;2022-10-16T05:45:34;95910.38;;;6.77;100.00
4471;BME280;2248;42.698;23.292;2022-10-16T05:48:00;95945.00;;;7.05;100.00
4471;BME280;2248;42.698;23.292;2022-10-16T05:50:26;95938.16;;;7.08;100.00
4471;BME280;2248;42.698;23.292;2022-10-16T05:52:52;95947.69;;;7.05;100.00
4471;BME280;2248;42.698;23.292;2022-10-16T05:55:17;95940.09;;;7.11;100.00
4471;BME280;2248;42.698;23.292;2022-10-16T05:57:43;95950.00;;;7.30;100.00
4471;BME280;2248;42.698;23.292;2022-10-16T06:00:10;95950.00;;;7.30;100.00
4471;BME280;2248;42.698;23.292;2022-10-16T06:02:36;95963.25;;;7.69;100.00
4471;BME280;2248;42.698;23.292;2022-10-16T06:05:01;95949.38;;;7.67;100.00
4471;BME280;2248;42.698;23.292;2022-10-16T06:07:27;95973.91;;;7.89;100.00
4471;BME280;2248;42.698;23.292;2022-10-16T06:09:53;95971.78;;;8.01;100.00
4471;BME280;2248;42.698;23.292;2022-10-16T06:12:19;95958.78;;;8.07;100.00
4471;BME280;2248;42.698;23.292;2022-10-16T06:14:45;95987.13;;;8.31;100.00
4471;BME280;2248;42.698;23.292;2022-10-16T06:17:13;95978.06;;;8.43;100.00
4471;BME280;2248;42.698;23.292;2022-10-16T06:19:39;95991.97;;;8.49;100.00
4471;BME280;2248;42.698;23.292;2022-10-16T06:22:05;95989.09;;;8.65;100.00
4471;BME280;2248;42.698;23.292;2022-10-16T06:24:30;95982.25;;;8.71;100.00
4471;BME280;2248;42.698;23.292;2022-10-16T06:26:56;95959.41;;;8.61;100.00
4471;BME280;2248;42.698;23.292;2022-10-16T06:29:21;96000.22;;;8.97;100.00
4471;BME280;2248;42.698;23.292;2022-10-16T06:31:47;95983.59;;;8.92;100.00
4471;BME280;2248;42.698;23.292;2022-10-16T06:34:12;96019.63;;;9.17;100.00
4471;BME280;2248;42.698;23.292;2022-10-16T06:36:38;96001.94;;;9.20;100.00
4471;BME280;2248;42.698;23.292;2022-10-16T06:39:04;96019.47;;;9.40;100.00
4471;BME280;2248;42.698;23.292;2022-10-16T06:41:32;96019.16;;;9.49;100.00
4471;BME280;2248;42.698;23.292;2022-10-16T06:43:58;96019.66;;;9.62;100.00
4471;BME280;2248;42.698;23.292;2022-10-16T06:46:25;96027.03;;;9.72;100.00
4471;BME280;2248;42.698;23.292;2022-10-16T06:48:51;96030.53;;;9.76;100.00
4471;BME280;2248;42.698;23.292;2022-10-16T06:51:19;96045.25;;;9.83;100.00
4471;BME280;2248;42.698;23.292;2022-10-16T06:53:49;96045.25;;;9.83;100.00
4471;BME280;2248;42.698;23.292;2022-10-16T06:56:19;96051.91;;;10.00;100.00
4471;BME280;2248;42.698;23.292;2022-10-16T06:58:46;96060.84;;;10.07;100.00
4471;BME280;2248;42.698;23.292;2022-10-16T07:01:13;96060.50;;;10.16;100.00
4471;BME280;2248;42.698;23.292;2022-10-16T07:03:40;96041.56;;;10.09;100.00
4471;BME280;2248;42.698;23.292;2022-10-16T07:06:07;96063.69;;;10.29;100.00
4471;BME280;2248;42.698;23.292;2022-10-16T07:08:34;96059.91;;;10.41;100.00
4471;BME280;2248;42.698;23.292;2022-10-16T07:11:01;96064.31;;;10.71;100.00
4471;BME280;2248;42.698;23.292;2022-10-16T07:13:27;96058.53;;;10.76;100.00
4471;BME280;2248;42.698;23.292;2022-10-16T07:15:53;96074.78;;;10.79;100.00
4471;BME280;2248;42.698;23.292;2022-10-16T07:18:18;96072.47;;;10.89;100.00
4471;BME280;2248;42.698;23.292;2022-10-16T07:20:44;96068.66;;;11.01;100.00
4471;BME280;2248;42.698;23.292;2022-10-16T07:23:09;96072.94;;;11.09;100.00
4471;BME280;2248;42.698;23.292;2022-10-16T07:25:35;96073.69;;;10.98;100.00
4471;BME280;2248;42.698;23.292;2022-10-16T07:28:00;96084.41;;;10.77;100.00
4471;BME280;2248;42.698;23.292;2022-10-16T07:30:26;96075.22;;;10.92;100.00
4471;BME280;2248;42.698;23.292;2022-10-16T07:32:51;96090.34;;;11.15;100.00
4471;BME280;2248;42.698;23.292;2022-10-16T07:35:17;96082.63;;;11.28;100.00
4471;BME280;2248;42.698;23.292;2022-10-16T07:37:46;96081.09;;;11.34;100.00
4471;BME280;2248;42.698;23.292;2022-10-16T07:40:12;96040.50;;;11.20;100.00
4471;BME280;2248;42.698;23.292;2022-10-16T07:42:37;96081.91;;;11.52;100.00
4471;BME280;2248;42.698;23.292;2022-10-16T07:45:03;96069.16;;;11.57;100.00
4471;BME280;2248;42.698;23.292;2022-10-16T07:47:29;96083.84;;;11.63;100.00
4471;BME280;2248;42.698;23.292;2022-10-16T07:49:54;96075.34;;;11.79;100.00
4471;BME280;2248;42.698;23.292;2022-10-16T07:52:20;96086.19;;;11.86;100.00
4471;BME280;2248;42.698;23.292;2022-10-16T07:54:45;96095.50;;;11.96;100.00
4471;BME280;2248;42.698;23.292;2022-10-16T07:57:11;96094.34;;;12.00;100.00
4471;BME280;2248;42.698;23.292;2022-10-16T07:59:39;96087.00;;;11.97;100.00
4471;BME280;2248;42.698;23.292;2022-10-16T08:02:04;96093.19;;;11.94;100.00
4471;BME280;2248;42.698;23.292;2022-10-16T08:04:30;96091.63;;;12.00;100.00
4471;BME280;2248;42.698;23.292;2022-10-16T08:06:55;96115.22;;;12.18;100.00
4471;BME280;2248;42.698;23.292;2022-10-16T08:09:21;96082.31;;;12.23;100.00
4471;BME280;2248;42.698;23.292;2022-10-16T08:11:46;96090.03;;;12.43;100.00
4471;BME280;2248;42.698;23.292;2022-10-16T08:14:11;96091.16;;;12.56;100.00
4471;BME280;2248;42.698;23.292;2022-10-16T08:16:37;96092.72;;;12.46;100.00
4471;BME280;2248;42.698;23.292;2022-10-16T08:19:02;96089.59;;;12.55;100.00
4471;BME280;2248;42.698;23.292;2022-10-16T08:21:28;96085.66;;;12.81;100.00
4471;BME280;2248;42.698;23.292;2022-10-16T08:23:53;96087.13;;;13.00;100.00
4471;BME280;2248;42.698;23.292;2022-10-16T08:26:20;96078.16;;;13.14;100.00
4471;BME280;2248;42.698;23.292;2022-10-16T08:28:46;96072.72;;;13.18;100.00
4471;BME280;2248;42.698;23.292;2022-10-16T08:31:15;96082.28;;;13.44;100.00
4471;BME280;2248;42.698;23.292;2022-10-16T08:33:44;96071.72;;;13.57;100.00
4471;BME280;2248;42.698;23.292;2022-10-16T08:36:12;96071.56;;;13.78;100.00
4471;BME280;2248;42.698;23.292;2022-10-16T08:38:38;96068.34;;;13.94;100.00
4471;BME280;2248;42.698;23.292;2022-10-16T08:49:18;96066.97;;;14.55;100.00
4471;BME280;2248;42.698;23.292;2022-10-16T08:51:43;96077.34;;;14.71;100.00
4471;BME280;2248;42.698;23.292;2022-10-16T08:56:55;96082.75;;;15.06;100.00
4471;BME280;2248;42.698;23.292;2022-10-16T08:59:22;96078.75;;;15.14;100.00
4471;BME280;2248;42.698;23.292;2022-10-16T09:01:50;96084.50;;;15.23;100.00
4471;BME280;2248;42.698;23.292;2022-10-16T09:12:22;96060.75;;;15.51;100.00
4471;BME280;2248;42.698;23.292;2022-10-16T09:23:17;96074.94;;;20.27;91.20
4471;BME280;2248;42.698;23.292;2022-10-16T09:25:45;96069.47;;;21.69;74.70
4471;BME280;2248;42.698;23.292;2022-10-16T09:28:13;96071.19;;;22.72;62.79
4471;BME280;2248;42.698;23.292;2022-10-16T09:30:39;96070.69;;;24.30;53.28
4471;BME280;2248;42.698;23.292;2022-10-16T09:33:05;96074.78;;;25.28;48.48
4471;BME280;2248;42.698;23.292;2022-10-16T09:38:08;96075.63;;;26.35;41.91
4471;BME280;2248;42.698;23.292;2022-10-16T09:40:38;96071.91;;;27.63;36.82
4471;BME280;2248;42.698;23.292;2022-10-16T09:45:55;96059.22;;;27.25;36.34
4471;BME280;2248;42.698;23.292;2022-10-16T09:48:21;96040.63;;;28.00;34.25
4471;BME280;2248;42.698;23.292;2022-10-16T09:51:01;96064.88;;;28.60;33.30
4471;BME280;2248;42.698;23.292;2022-10-16T09:53:47;96049.28;;;28.80;32.13
4471;BME280;2248;42.698;23.292;2022-10-16T09:56:25;96040.25;;;29.36;31.48
4471;BME280;2248;42.698;23.292;2022-10-16T09:58:53;96054.38;;;28.27;31.94
4471;BME280;2248;42.698;23.292;2022-10-16T10:01:20;96047.84;;;26.96;34.80
4471;BME280;2248;42.698;23.292;2022-10-16T10:03:46;96049.03;;;26.22;36.82
4471;BME280;2248;42.698;23.292;2022-10-16T10:06:30;96042.81;;;26.07;37.26
4471;BME280;2248;42.698;23.292;2022-10-16T10:08:58;96043.84;;;26.51;36.40
4471;BME280;2248;42.698;23.292;2022-10-16T10:16:41;96009.38;;;22.27;55.67
4471;BME280;2248;42.698;23.292;2022-10-16T10:19:16;96029.56;;;21.55;61.06
4471;BME280;2248;42.698;23.292;2022-10-16T10:21:42;96016.78;;;20.77;65.44
4471;BME280;2248;42.698;23.292;2022-10-16T10:24:15;96024.66;;;20.30;70.55
4471;BME280;2248;42.698;23.292;2022-10-16T10:26:49;95997.13;;;19.86;74.63
4471;BME280;2248;42.698;23.292;2022-10-16T10:29:18;96008.56;;;19.59;73.96
4471;BME280;2248;42.698;23.292;2022-10-16T10:35:03;96010.72;;;18.99;77.87
4471;BME280;2248;42.698;23.292;2022-10-16T10:40:15;96005.03;;;18.94;79.59
4471;BME280;2248;42.698;23.292;2022-10-16T10:42:53;95989.38;;;19.59;80.45
4471;BME280;2248;42.698;23.292;2022-10-16T10:45:27;95972.44;;;19.86;76.89
4471;BME280;2248;42.698;23.292;2022-10-16T10:55:47;95982.34;;;19.58;77.06
4471;BME280;2248;42.698;23.292;2022-10-16T10:58:39;95990.81;;;19.38;78.05
4471;BME280;2248;42.698;23.292;2022-10-16T11:01:11;95980.50;;;19.42;77.80
4471;BME280;2248;42.698;23.292;2022-10-16T11:03:51;95982.44;;;19.54;76.28
4471;BME280;2248;42.698;23.292;2022-10-16T11:06:33;95975.03;;;19.42;78.12
4471;BME280;2248;42.698;23.292;2022-10-16T11:09:13;95971.97;;;19.27;78.38
4471;BME280;2248;42.698;23.292;2022-10-16T11:14:16;95980.50;;;19.03;77.08
4471;BME280;2248;42.698;23.292;2022-10-16T11:19:24;95964.41;;;19.05;77.14
4471;BME280;2248;42.698;23.292;2022-10-16T11:21:58;95972.03;;;18.85;80.72
4471;BME280;2248;42.698;23.292;2022-10-16T11:25:14;95970.03;;;18.72;81.36
4471;BME280;2248;42.698;23.292;2022-10-16T11:27:40;95968.44;;;18.88;79.24
4471;BME280;2248;42.698;23.292;2022-10-16T11:33:03;95957.94;;;18.86;83.28
4471;BME280;2248;42.698;23.292;2022-10-16T11:38:12;95963.75;;;19.27;78.81
4471;BME280;2248;42.698;23.292;2022-10-16T11:40:41;95957.38;;;19.43;76.77
4471;BME280;2248;42.698;23.292;2022-10-16T11:43:20;95959.63;;;19.70;74.45
4471;BME280;2248;42.698;23.292;2022-10-16T11:45:52;95944.97;;;19.38;75.81
4471;BME280;2248;42.698;23.292;2022-10-16T11:56:19;95959.94;;;20.20;73.40
4471;BME280;2248;42.698;23.292;2022-10-16T12:01:42;95963.75;;;20.89;67.52
4471;BME280;2248;42.698;23.292;2022-10-16T12:04:25;95961.19;;;20.95;66.97
4471;BME280;2248;42.698;23.292;2022-10-16T12:07:07;95957.63;;;21.16;65.87
4471;BME280;2248;42.698;23.292;2022-10-16T12:09:39;95954.44;;;21.27;64.86
4471;BME280;2248;42.698;23.292;2022-10-16T12:12:22;95942.69;;;21.27;65.36
4471;BME280;2248;42.698;23.292;2022-10-16T12:15:00;95954.03;;;21.47;66.01
4471;BME280;2248;42.698;23.292;2022-10-16T12:17:35;95946.06;;;21.99;62.95
4471;BME280;2248;42.698;23.292;2022-10-16T12:20:26;95953.84;;;21.73;55.07
4471;BME280;2248;42.698;23.292;2022-10-16T12:22:59;95956.59;;;20.92;62.78
4471;BME280;2248;42.698;23.292;2022-10-16T12:25:39;95959.47;;;20.88;62.92
4471;BME280;2248;42.698;23.292;2022-10-16T12:28:20;95962.16;;;20.79;64.03
4471;BME280;2248;42.698;23.292;2022-10-16T12:30:55;95958.06;;;20.83;65.10
4471;BME280;2248;42.698;23.292;2022-10-16T12:35:58;95957.00;;;20.59;63.44
4471;BME280;2248;42.698;23.292;2022-10-16T12:41:07;95956.72;;;19.99;66.91
4471;BME280;2248;42.698;23.292;2022-10-16T12:43:47;95967.69;;;19.99;67.94
4471;BME280;2248;42.698;23.292;2022-10-16T12:48:40;95947.63;;;20.25;64.93
4471;BME280;2248;42.698;23.292;2022-10-16T12:54:00;95952.78;;;19.88;64.58
4471;BME280;2248;42.698;23.292;2022-10-16T12:59:06;95965.38;;;20.33;64.10
4471;BME280;2248;42.698;23.292;2022-10-16T13:01:56;95963.50;;;20.30;64.85
4471;BME280;2248;42.698;23.292;2022-10-16T13:04:44;95945.16;;;19.69;68.03
4471;BME280;2248;42.698;23.292;2022-10-16T13:15:26;95973.16;;;19.26;65.38
4471;BME280;2248;42.698;23.292;2022-10-16T13:18:05;95967.03;;;19.09;64.66
4471;BME280;2248;42.698;23.292;2022-10-16T13:25:58;95947.91;;;18.79;69.77
4471;BME280;2248;42.698;23.292;2022-10-16T13:28:32;95924.25;;;18.60;67.80
4471;BME280;2248;42.698;23.292;2022-10-16T13:31:00;95966.03;;;18.90;68.39
4471;BME280;2248;42.698;23.292;2022-10-16T13:33:41;95965.34;;;18.73;69.97
4471;BME280;2248;42.698;23.292;2022-10-16T13:36:25;95962.38;;;18.80;69.66
4471;BME280;2248;42.698;23.292;2022-10-16T13:39:10;95962.88;;;18.62;69.93
4471;BME280;2248;42.698;23.292;2022-10-16T13:41:37;95968.91;;;18.70;70.32
4471;BME280;2248;42.698;23.292;2022-10-16T13:44:02;95970.78;;;18.60;71.74
4471;BME280;2248;42.698;23.292;2022-10-16T13:46:28;95971.97;;;18.59;71.68
4471;BME280;2248;42.698;23.292;2022-10-16T13:49:01;95976.44;;;18.53;73.18
4471;BME280;2248;42.698;23.292;2022-10-16T13:51:29;95976.53;;;18.49;73.90
4471;BME280;2248;42.698;23.292;2022-10-16T13:53:56;95962.78;;;18.23;76.11
4471;BME280;2248;42.698;23.292;2022-10-16T13:56:25;95975.31;;;18.37;70.14
4471;BME280;2248;42.698;23.292;2022-10-16T13:59:03;95971.56;;;18.31;69.94
4471;BME280;2248;42.698;23.292;2022-10-16T14:01:33;95981.16;;;18.23;68.98
4471;BME280;2248;42.698;23.292;2022-10-16T14:04:06;95981.59;;;18.21;67.68
4471;BME280;2248;42.698;23.292;2022-10-16T14:06:33;95988.28;;;18.20;66.18
4471;BME280;2248;42.698;23.292;2022-10-16T14:09:07;95973.44;;;18.05;68.06
4471;BME280;2248;42.698;23.292;2022-10-16T14:11:37;95989.84;;;18.05;68.56
4471;BME280;2248;42.698;23.292;2022-10-16T14:14:11;95986.19;;;17.95;69.63
4471;BME280;2248;42.698;23.292;2022-10-16T14:16:40;95983.69;;;17.84;68.77
4471;BME280;2248;42.698;23.292;2022-10-16T14:19:18;95983.59;;;17.88;66.89
4471;BME280;2248;42.698;23.292;2022-10-16T14:21:44;95980.72;;;17.78;72.46
4471;BME280;2248;42.698;23.292;2022-10-16T14:24:13;95987.38;;;17.61;71.54
4471;BME280;2248;42.698;23.292;2022-10-16T14:26:47;95985.84;;;17.60;69.83
4471;BME280;2248;42.698;23.292;2022-10-16T14:29:17;95983.91;;;17.60;69.29
4471;BME280;2248;42.698;23.292;2022-10-16T14:32:03;95988.75;;;17.53;70.28
4471;BME280;2248;42.698;23.292;2022-10-16T14:34:35;95990.47;;;17.47;70.48
4471;BME280;2248;42.698;23.292;2022-10-16T14:37:08;95998.88;;;17.85;67.17
4471;BME280;2248;42.698;23.292;2022-10-16T14:39:35;96006.09;;;17.96;65.30
4471;BME280;2248;42.698;23.292;2022-10-16T14:42:01;96002.59;;;17.78;65.34
4471;BME280;2248;42.698;23.292;2022-10-16T14:44:32;95989.53;;;17.53;65.97
4471;BME280;2248;42.698;23.292;2022-10-16T14:47:07;96001.56;;;17.39;69.43
4471;BME280;2248;42.698;23.292;2022-10-16T14:49:33;96007.75;;;17.23;69.40
4471;BME280;2248;42.698;23.292;2022-10-16T14:51:58;96002.56;;;17.13;69.26
4471;BME280;2248;42.698;23.292;2022-10-16T14:54:24;95995.28;;;17.06;69.68
4471;BME280;2248;42.698;23.292;2022-10-16T14:56:53;96012.41;;;17.06;70.51
4471;BME280;2248;42.698;23.292;2022-10-16T14:59:45;96012.66;;;16.96;71.23
4471;BME280;2248;42.698;23.292;2022-10-16T15:04:48;95972.66;;;16.49;73.27
4471;BME280;2248;42.698;23.292;2022-10-16T15:07:13;95992.66;;;16.42;75.95
4471;BME280;2248;42.698;23.292;2022-10-16T15:09:39;95989.44;;;16.27;76.34
4471;BME280;2248;42.698;23.292;2022-10-16T15:12:04;96025.25;;;16.49;76.36
4471;BME280;2248;42.698;23.292;2022-10-16T15:14:30;95979.69;;;16.06;78.76
4471;BME280;2248;42.698;23.292;2022-10-16T15:16:56;95956.75;;;15.83;78.37
4471;BME280;2248;42.698;23.292;2022-10-16T15:19:21;96032.47;;;16.16;80.08